Terminal Aerodrome Forecast
Issued by NWS

Home | Current Version | Previous Version | Text Only | Print | Product List | Glossary On
Versions: 1 2 3 4 5 6 7 8 9 10 11 12 13 14 15 16
000
FTUS43 KFGF 062004 AAA
TAFTVF
TAF AMD
KTVF 062004Z 0620/0718 34018G25KT P6SM SCT120
     FM070100 35014G21KT P6SM SCT120
     FM070300 VRB06KT P6SM FEW250
     FM071700 32011KT P6SM FEW250
      AMD LTD TO CLD VIS AND WIND=

USA.gov is the U.S. government's official web portal to all federal, state and local government web resources and services.